Time;durP1;ratioP1;P1;durP2;ratioP2;P2;SDS_P1;SDS_P2;PMS_P1;PMS_P2;Temp;Humidity;BMP_temperature;BMP_pressure;BME280_temperature;BME280_humidity;BME280_pressure;Samples;Min_cycle;Max_cycle;Signal;HPM_P1;HPM_P2
2022/04/06 00:02:03;;;;;;;12.85;4.90;;;;;;;5.48;76.69;94272.56;5025098;28;20563;-74
2022/04/06 00:04:30;;;;;;;10.85;5.72;;;;;;;5.44;77.27;94274.28;5019666;28;20203;-74
2022/04/06 00:06:57;;;;;;;12.73;5.72;;;;;;;5.39;77.30;94287.81;5021139;28;20263;-74
2022/04/06 00:09:24;;;;;;;9.98;5.13;;;;;;;5.29;77.06;94288.84;5018372;28;20296;-74
2022/04/06 00:11:51;;;;;;;7.55;4.38;;;;;;;5.26;76.90;94286.78;5033168;28;20591;-74
2022/04/06 00:14:18;;;;;;;9.30;4.72;;;;;;;5.30;76.66;94277.03;5019507;28;20228;-73
2022/04/06 00:16:47;;;;;;;11.50;4.63;;;;;;;5.27;76.32;94272.25;5020697;28;20544;-74
2022/04/06 00:19:14;;;;;;;8.75;4.95;;;;;;;5.23;76.08;94267.78;5026434;28;20229;-74
2022/04/06 00:21:41;;;;;;;7.22;4.35;;;;;;;5.23;76.22;94270.47;5026122;28;20212;-73
2022/04/06 00:24:08;;;;;;;11.65;4.82;;;;;;;5.28;76.15;94275.72;5031412;28;20204;-74
2022/04/06 00:26:35;;;;;;;11.30;4.90;;;;;;;5.26;76.14;94275.25;5019272;28;20236;-74
2022/04/06 00:29:03;;;;;;;10.23;4.70;;;;;;;5.26;76.89;94273.34;5026074;28;20289;-75
2022/04/06 00:31:31;;;;;;;12.13;4.88;;;;;;;5.29;77.60;94277.31;5025878;28;20204;-74
2022/04/06 00:33:59;;;;;;;10.05;4.97;;;;;;;5.22;76.34;94268.88;5019332;28;20196;-75
2022/04/06 00:36:26;;;;;;;9.07;5.00;;;;;;;5.14;76.25;94277.66;5032075;28;20542;-74
2022/04/06 00:38:53;;;;;;;12.20;5.18;;;;;;;5.07;76.46;94280.72;5019088;28;20584;-73
2022/04/06 00:41:20;;;;;;;12.00;5.20;;;;;;;5.05;76.55;94282.16;5019030;28;20201;-74
2022/04/06 00:44:12;;;;;;;8.77;5.05;;;;;;;5.12;75.95;94285.22;5025132;28;20236;-73
2022/04/06 00:46:39;;;;;;;13.35;4.70;;;;;;;5.06;75.89;94286.44;5025535;28;20233;-74
2022/04/06 00:49:11;;;;;;;8.32;4.75;;;;;;;5.07;75.54;94296.03;5022947;28;20262;-74
2022/04/06 00:51:40;;;;;;;10.32;4.88;;;;;;;5.04;75.79;94304.72;5019078;28;20647;-75
2022/04/06 00:54:08;;;;;;;7.28;4.43;;;;;;;5.07;76.69;94296.03;5019862;28;20288;-75
2022/04/06 00:56:35;;;;;;;7.43;4.85;;;;;;;5.12;76.38;94296.75;5025601;28;20232;-73
2022/04/06 00:59:03;;;;;;;8.73;4.80;;;;;;;5.17;75.96;94293.16;5012559;28;20249;-74
2022/04/06 01:01:30;;;;;;;9.40;4.82;;;;;;;5.13;75.81;94286.81;5025433;28;20279;-73
2022/04/06 01:03:56;;;;;;;8.40;4.63;;;;;;;5.14;75.82;94291.06;5024371;28;20200;-74
2022/04/06 01:06:25;;;;;;;8.43;4.90;;;;;;;5.09;75.82;94296.53;5018319;28;20570;-75
2022/04/06 01:08:52;;;;;;;8.07;4.43;;;;;;;5.03;75.90;94295.88;5019203;28;20208;-74
2022/04/06 01:11:20;;;;;;;9.25;4.65;;;;;;;5.11;76.49;94297.03;5019708;28;20222;-74
2022/04/06 01:13:48;;;;;;;10.57;5.18;;;;;;;5.07;76.19;94298.72;5018455;28;20220;-74
2022/04/06 01:16:15;;;;;;;11.73;5.30;;;;;;;5.03;76.83;94287.03;5023260;28;20196;-74
2022/04/06 01:18:41;;;;;;;8.35;4.75;;;;;;;5.03;76.94;94295.09;5013447;28;20233;-74
2022/04/06 01:21:11;;;;;;;9.05;5.32;;;;;;;5.06;76.42;94297.16;5023515;28;20205;-74
2022/04/06 01:23:41;;;;;;;10.18;5.30;;;;;;;5.05;75.48;94291.00;5026007;28;20621;-74
2022/04/06 01:26:08;;;;;;;8.00;5.18;;;;;;;5.07;76.39;94288.00;5021167;28;20203;-74
2022/04/06 01:28:35;;;;;;;11.18;5.38;;;;;;;5.03;75.90;94292.41;5024904;28;20200;-74
2022/04/06 01:31:02;;;;;;;12.35;5.82;;;;;;;4.96;76.43;94293.59;5021779;28;20664;-74
2022/04/06 01:33:29;;;;;;;9.18;4.70;;;;;;;4.98;77.25;94290.59;5018119;28;20207;-74
2022/04/06 01:35:56;;;;;;;9.88;5.70;;;;;;;4.98;75.98;94286.03;5031650;28;20263;-74
2022/04/06 01:38:24;;;;;;;11.30;5.18;;;;;;;4.92;76.26;94279.16;5017794;28;20675;-74
2022/04/06 01:40:52;;;;;;;13.35;4.72;;;;;;;4.92;76.38;94287.22;5020653;28;20260;-74
2022/04/06 01:43:20;;;;;;;13.68;4.88;;;;;;;4.83;76.33;94278.28;5024966;28;20200;-74
2022/04/06 01:45:47;;;;;;;7.97;4.90;;;;;;;4.82;75.71;94279.38;5011384;28;20201;-75
2022/04/06 01:48:15;;;;;;;9.15;5.15;;;;;;;4.84;76.45;94285.25;5024450;28;20565;-74
2022/04/06 01:53:26;;;;;;;6.43;4.13;;;;;;;4.83;77.14;94294.38;5018005;28;20246;-75
2022/04/06 01:55:55;;;;;;;8.82;4.40;;;;;;;4.80;76.50;94286.94;5017534;28;20209;-75
2022/04/06 01:58:22;;;;;;;10.90;4.53;;;;;;;4.73;75.59;94289.25;5024304;28;20316;-74
2022/04/06 02:00:50;;;;;;;7.22;4.22;;;;;;;4.67;75.94;94295.78;5024555;28;20243;-74
2022/04/06 02:03:17;;;;;;;9.35;4.38;;;;;;;4.63;75.90;94298.28;5018946;28;20302;-74
2022/04/06 02:05:44;;;;;;;9.32;4.72;;;;;;;4.63;75.79;94300.97;5017053;28;20205;-74
2022/04/06 02:08:11;;;;;;;11.38;5.13;;;;;;;4.57;76.10;94306.72;5031085;28;20204;-74
2022/04/06 02:10:39;;;;;;;9.68;4.63;;;;;;;4.52;76.11;94298.75;5017908;28;20201;-74
2022/04/06 02:13:08;;;;;;;8.85;4.88;;;;;;;4.35;77.09;94303.94;5022677;28;20240;-74
2022/04/06 02:15:37;;;;;;;11.40;5.10;;;;;;;4.33;77.04;94306.09;5024387;28;20697;-74
2022/04/06 02:18:04;;;;;;;8.52;4.47;;;;;;;4.39;77.09;94312.94;5020099;28;20200;-74
2022/04/06 02:20:32;;;;;;;12.77;5.15;;;;;;;4.33;76.83;94301.53;5017405;28;20267;-75
2022/04/06 02:22:59;;;;;;;8.50;4.38;;;;;;;4.36;77.35;94305.53;5021472;28;20233;-75
2022/04/06 02:25:26;;;;;;;8.85;4.72;;;;;;;4.35;77.95;94304.72;5016255;28;20266;-75
2022/04/06 02:27:54;;;;;;;11.52;4.90;;;;;;;4.36;78.18;94308.22;5021041;28;20201;-75
2022/04/06 02:30:23;;;;;;;8.90;4.07;;;;;;;4.32;78.20;94309.88;5024596;28;20209;-75
2022/04/06 02:32:50;;;;;;;11.43;4.03;;;;;;;4.40;78.04;94306.50;5021914;28;20200;-75
2022/04/06 02:35:17;;;;;;;9.35;4.50;;;;;;;4.36;77.30;94316.25;5017653;28;20204;-75
2022/04/06 02:37:44;;;;;;;8.82;4.68;;;;;;;4.29;76.84;94317.41;5019779;28;20249;-75
2022/04/06 02:40:14;;;;;;;7.38;4.35;;;;;;;4.42;77.19;94315.84;5023964;28;20244;-74
2022/04/06 02:42:41;;;;;;;10.77;4.38;;;;;;;4.25;75.77;94326.34;5022835;28;20266;-75
2022/04/06 02:45:08;;;;;;;7.85;4.43;;;;;;;4.26;76.09;94325.25;5017280;28;20263;-75
2022/04/06 02:47:36;;;;;;;8.50;4.18;;;;;;;4.20;77.01;94318.41;5018563;28;20204;-74
2022/04/06 02:50:05;;;;;;;8.18;4.65;;;;;;;4.17;77.77;94319.78;5024148;28;20233;-75
2022/04/06 02:52:32;;;;;;;8.77;4.72;;;;;;;4.19;77.47;94322.16;5022695;28;20205;-74
2022/04/06 02:54:59;;;;;;;14.27;4.47;;;;;;;4.23;78.74;94323.97;5017145;28;20972;-75
2022/04/06 02:57:26;;;;;;;7.90;4.88;;;;;;;4.21;77.70;94326.16;5017394;28;20213;-75
2022/04/06 02:59:53;;;;;;;9.50;4.25;;;;;;;4.24;78.03;94330.09;5023732;28;20767;-75
2022/04/06 03:02:19;;;;;;;6.47;4.47;;;;;;;4.28;77.54;94337.28;5023508;28;20201;-75
2022/04/06 03:04:49;;;;;;;9.70;4.13;;;;;;;4.27;77.97;94330.31;5016976;28;20209;-75
2022/04/06 03:07:19;;;;;;;10.18;4.65;;;;;;;4.23;77.54;94334.69;5017112;28;20296;-75
2022/04/06 03:09:46;;;;;;;7.75;5.05;;;;;;;4.25;78.15;94337.06;5030427;28;20250;-75
2022/04/06 03:12:14;;;;;;;10.55;6.65;;;;;;;4.27;78.14;94338.34;5028334;28;20381;-75
2022/04/06 03:14:41;;;;;;;11.52;5.80;;;;;;;4.26;78.16;94334.09;5018994;28;20204;-75
2022/04/06 03:17:07;;;;;;;11.68;5.07;;;;;;;4.35;77.67;94330.75;5018066;28;20214;-75
2022/04/06 03:19:35;;;;;;;11.00;5.72;;;;;;;4.24;76.73;94336.25;5025746;28;20236;-75
2022/04/06 03:22:03;;;;;;;11.02;6.20;;;;;;;4.29;77.46;94338.88;5028927;28;20204;-75
2022/04/06 03:24:30;;;;;;;20.30;11.50;;;;;;;4.20;77.49;94339.84;5031584;28;20579;-75
2022/04/06 03:26:57;;;;;;;29.02;15.20;;;;;;;4.19;77.45;94332.91;5020491;28;20560;-75
2022/04/06 03:29:24;;;;;;;29.58;19.48;;;;;;;4.17;77.24;94340.44;5024623;28;20487;-75
2022/04/06 03:31:51;;;;;;;15.40;7.00;;;;;;;4.11;76.72;94346.94;5026780;28;20200;-75
2022/04/06 03:34:18;;;;;;;16.67;5.95;;;;;;;4.08;76.65;94336.84;5022789;28;20676;-75
2022/04/06 03:36:45;;;;;;;12.82;7.22;;;;;;;4.10;76.89;94350.75;5020116;28;20201;-74
2022/04/06 03:39:13;;;;;;;13.70;6.47;;;;;;;3.95;77.15;94349.09;5025345;28;20631;-74
2022/04/06 03:41:40;;;;;;;11.48;5.60;;;;;;;3.93;77.85;94348.59;5026768;28;20258;-74
2022/04/06 03:44:07;;;;;;;9.27;5.20;;;;;;;3.93;78.93;94348.59;5022285;28;20305;-74
2022/04/06 03:46:33;;;;;;;14.48;5.70;;;;;;;3.99;79.82;94344.72;5019876;28;20201;-75
2022/04/06 03:49:00;;;;;;;20.40;6.05;;;;;;;3.98;78.93;94348.50;5024689;28;20668;-74
2022/04/06 03:51:27;;;;;;;16.63;5.72;;;;;;;3.99;78.81;94350.09;5028398;28;20273;-74
2022/04/06 03:53:54;;;;;;;10.35;6.47;;;;;;;4.02;78.63;94348.72;5032211;28;20270;-74
2022/04/06 03:56:23;;;;;;;18.17;7.65;;;;;;;4.06;77.84;94358.56;5032382;28;20209;-74
2022/04/06 03:58:50;;;;;;;11.52;6.90;;;;;;;3.85;78.66;94366.13;5032246;28;20274;-74
2022/04/06 04:01:16;;;;;;;16.08;6.22;;;;;;;3.75;78.82;94365.47;5032503;28;20728;-74
2022/04/06 04:03:43;;;;;;;24.40;6.88;;;;;;;3.92;78.57;94377.28;5023862;28;20587;-74
2022/04/06 04:06:10;;;;;;;19.65;9.27;;;;;;;4.09;78.42;94371.38;5013097;28;20220;-74
2022/04/06 04:08:37;;;;;;;19.63;8.68;;;;;;;4.18;78.38;94374.97;5012393;28;20208;-74
2022/04/06 04:11:05;;;;;;;19.47;9.13;;;;;;;4.19;77.40;94383.81;5024980;28;20436;-74
2022/04/06 04:13:33;;;;;;;13.75;7.82;;;;;;;4.26;77.25;94376.97;5013336;28;20450;-74
2022/04/06 04:16:00;;;;;;;18.23;7.55;;;;;;;4.74;77.21;94374.00;5013271;28;20209;-74
2022/04/06 04:18:26;;;;;;;15.20;7.68;;;;;;;4.98;74.21;94379.97;5013047;28;20823;-74
2022/04/06 04:21:31;;;;;;;25.80;7.85;;;;;;;5.82;72.32;94371.47;5012273;28;20639;-74
2022/04/06 04:23:41;;;;;;;18.88;7.28;;;;;;;6.80;68.41;94371.50;5016187;28;20569;-75
2022/04/06 04:26:08;;;;;;;15.38;7.63;;;;;;;7.91;65.86;94377.50;5032480;28;20610;-75
2022/04/06 04:28:36;;;;;;;15.18;7.60;;;;;;;8.92;63.38;94363.41;5031363;28;20587;-74
2022/04/06 04:31:03;;;;;;;12.32;7.03;;;;;;;9.81;58.61;94362.31;5032513;28;20326;-75
2022/04/06 04:33:30;;;;;;;14.65;7.03;;;;;;;10.40;56.62;94362.19;5032305;28;20208;-75
2022/04/06 04:35:57;;;;;;;17.65;6.78;;;;;;;10.89;54.53;94362.34;5032079;28;20660;-75
2022/04/06 04:38:24;;;;;;;13.95;7.50;;;;;;;10.80;54.85;94364.34;5032475;28;20204;-75
2022/04/06 04:40:51;;;;;;;13.48;7.18;;;;;;;11.83;52.21;94368.50;5032897;28;20240;-74
2022/04/06 04:43:18;;;;;;;15.75;6.93;;;;;;;12.10;51.75;94362.34;5031890;28;20308;-74
2022/04/06 04:45:47;;;;;;;16.77;7.75;;;;;;;12.78;51.12;94367.75;4992702;28;20213;-74
2022/04/06 04:48:14;;;;;;;15.85;8.70;;;;;;;13.40;48.32;94362.72;4992461;28;20209;-74
2022/04/06 04:50:41;;;;;;;15.98;9.30;;;;;;;13.46;47.95;94367.56;4992750;28;20217;-74
2022/04/06 04:53:08;;;;;;;20.17;8.32;;;;;;;13.63;48.24;94360.97;4975503;28;20257;-76
2022/04/06 04:55:35;;;;;;;13.35;7.85;;;;;;;13.83;47.47;94370.78;4973168;28;20221;-76
2022/04/06 04:58:02;;;;;;;24.73;10.77;;;;;;;14.07;46.48;94372.50;4973090;28;20206;-75
2022/04/06 05:00:29;;;;;;;16.40;9.63;;;;;;;14.37;46.05;94377.41;4983489;28;20244;-75
2022/04/06 05:02:57;;;;;;;17.10;9.40;;;;;;;14.41;45.70;94383.75;4992431;28;20205;-75
2022/04/06 05:05:25;;;;;;;21.27;9.00;;;;;;;14.32;45.77;94386.66;4992903;28;20377;-75
2022/04/06 05:07:51;;;;;;;18.95;9.68;;;;;;;14.62;44.74;94384.19;4992335;28;20210;-74
2022/04/06 05:10:19;;;;;;;19.98;10.45;;;;;;;15.30;43.81;94389.00;4992443;28;20653;-74
2022/04/06 05:12:48;;;;;;;17.30;10.60;;;;;;;15.68;42.36;94393.56;4973646;28;20214;-76
2022/04/06 05:15:15;;;;;;;20.40;10.45;;;;;;;15.41;42.83;94397.38;4971742;28;20281;-75
2022/04/06 05:17:42;;;;;;;20.42;10.32;;;;;;;15.02;43.85;94404.84;4978730;28;20268;-75
2022/04/06 05:20:11;;;;;;;23.65;11.70;;;;;;;15.92;41.81;94392.38;4980438;28;20571;-75
2022/04/06 05:22:39;;;;;;;24.23;11.45;;;;;;;17.15;39.33;94397.16;4972548;28;20222;-75
2022/04/06 05:25:08;;;;;;;20.15;10.45;;;;;;;17.87;37.79;94396.69;4987994;28;20248;-75
2022/04/06 05:27:44;;;;;;;21.98;11.02;;;;;;;18.13;37.11;94393.75;4991657;28;20221;-76
2022/04/06 05:30:12;;;;;;;20.83;10.65;;;;;;;17.74;37.74;94399.72;4992401;28;20209;-76
2022/04/06 05:32:39;;;;;;;20.77;11.20;;;;;;;17.18;38.07;94394.47;4991767;28;20206;-75
2022/04/06 05:35:09;;;;;;;16.10;11.10;;;;;;;18.02;36.71;94388.22;4979310;28;20206;-76
2022/04/06 05:37:37;;;;;;;21.27;11.40;;;;;;;18.21;36.83;94395.38;4983126;28;20209;-76
2022/04/06 05:40:05;;;;;;;19.52;12.05;;;;;;;18.50;35.50;94395.56;4972080;28;20234;-76
2022/04/06 05:42:33;;;;;;;25.42;11.95;;;;;;;18.89;34.95;94396.56;4971927;28;20589;-75
2022/04/06 05:45:00;;;;;;;18.70;11.20;;;;;;;18.20;35.63;94393.78;5002689;28;20239;-76
2022/04/06 05:47:26;;;;;;;20.02;11.68;;;;;;;18.81;35.12;94406.72;5021295;28;20201;-76
2022/04/06 05:49:53;;;;;;;17.95;10.68;;;;;;;18.33;34.93;94400.53;5028134;28;20270;-75
2022/04/06 05:52:20;;;;;;;17.20;10.80;;;;;;;17.42;36.83;94409.56;5021391;28;20201;-76
2022/04/06 05:54:49;;;;;;;16.52;10.75;;;;;;;17.85;35.88;94412.72;5024555;28;20245;-75
2022/04/06 05:57:15;;;;;;;17.15;10.07;;;;;;;17.97;35.51;94399.50;5021768;28;20690;-74
2022/04/06 05:59:42;;;;;;;17.55;10.45;;;;;;;18.00;35.35;94408.94;5026406;28;20228;-76
2022/04/06 06:02:09;;;;;;;16.88;10.75;;;;;;;17.77;35.16;94415.38;5022336;28;20196;-74
2022/04/06 06:04:38;;;;;;;20.58;11.75;;;;;;;18.48;34.37;94413.19;5017922;28;20740;-76
2022/04/06 06:07:05;;;;;;;20.35;11.20;;;;;;;18.07;35.00;94418.00;5019419;28;20259;-75
2022/04/06 06:09:32;;;;;;;17.60;10.50;;;;;;;18.58;34.65;94414.47;5023389;28;20228;-75
2022/04/06 06:12:01;;;;;;;24.10;10.52;;;;;;;18.23;34.73;94414.97;5023810;28;20216;-76
2022/04/06 06:14:28;;;;;;;21.33;10.52;;;;;;;18.27;35.74;94413.06;5017069;28;20200;-76
2022/04/06 06:16:55;;;;;;;20.15;10.70;;;;;;;18.26;35.98;94419.69;5030611;28;20204;-76
2022/04/06 06:19:22;;;;;;;17.73;10.07;;;;;;;19.50;33.86;94416.81;5031008;28;20208;-76
2022/04/06 06:21:49;;;;;;;14.98;10.00;;;;;;;18.97;33.84;94409.16;5017538;28;20718;-76
2022/04/06 06:24:16;;;;;;;20.15;10.80;;;;;;;19.63;32.77;94412.50;5019460;28;20204;-76
2022/04/06 06:26:43;;;;;;;20.08;10.73;;;;;;;19.34;33.06;94410.84;5029841;28;20205;-76
2022/04/06 06:29:12;;;;;;;19.20;9.93;;;;;;;19.11;33.28;94411.94;5029587;28;20592;-76
2022/04/06 06:31:39;;;;;;;20.60;9.15;;;;;;;18.90;33.65;94414.59;5029708;28;20663;-76
2022/04/06 06:34:06;;;;;;;22.90;9.85;;;;;;;18.18;34.83;94409.84;5011200;28;20208;-76
2022/04/06 06:36:33;;;;;;;20.35;8.93;;;;;;;20.50;31.60;94403.88;5010813;28;20211;-76
2022/04/06 06:39:00;;;;;;;18.42;8.77;;;;;;;20.41;31.89;94398.78;5010157;28;20614;-76
2022/04/06 06:41:28;;;;;;;19.20;8.88;;;;;;;20.21;32.22;94397.59;5010521;28;20233;-74
2022/04/06 06:43:56;;;;;;;13.75;8.50;;;;;;;19.16;33.55;94405.28;5009504;28;20240;-75
2022/04/06 06:46:24;;;;;;;18.25;9.63;;;;;;;18.25;34.83;94409.91;5010817;28;20209;-75
2022/04/06 06:48:54;;;;;;;18.45;9.30;;;;;;;18.88;33.82;94397.72;5010868;28;20220;-77
2022/04/06 06:51:20;;;;;;;23.27;10.20;;;;;;;18.98;33.88;94410.72;5026740;28;20216;-77
2022/04/06 06:53:47;;;;;;;19.17;8.68;;;;;;;18.42;34.19;94400.22;5034192;28;20999;-78
2022/04/06 06:56:15;;;;;;;20.35;9.10;;;;;;;19.42;33.32;94404.97;5034105;28;20254;-78
2022/04/06 06:58:41;;;;;;;13.52;8.05;;;;;;;19.71;32.99;94392.09;5033879;28;20263;-75
2022/04/06 07:01:08;;;;;;;19.52;8.25;;;;;;;19.44;33.27;94394.38;5034190;28;20266;-76
2022/04/06 07:03:36;;;;;;;16.35;7.88;;;;;;;20.35;31.92;94389.34;5033900;28;20651;-75
2022/04/06 07:06:04;;;;;;;12.10;7.45;;;;;;;18.52;34.08;94395.97;5034357;28;20208;-75
2022/04/06 07:08:31;;;;;;;11.88;7.93;;;;;;;18.96;33.64;94399.34;5034055;28;20215;-75
2022/04/06 07:10:58;;;;;;;12.63;7.40;;;;;;;19.24;33.32;94400.63;5029617;28;20212;-77
2022/04/06 07:13:25;;;;;;;12.43;7.60;;;;;;;16.88;36.65;94413.66;5014217;28;20292;-75
2022/04/06 07:15:52;;;;;;;16.40;7.25;;;;;;;18.45;34.84;94405.72;5013931;28;20494;-74
2022/04/06 07:18:21;;;;;;;14.82;6.90;;;;;;;18.23;34.59;94403.22;5014177;28;20216;-77
2022/04/06 07:20:50;;;;;;;14.98;7.03;;;;;;;17.17;36.24;94408.53;5032287;28;20275;-76
2022/04/06 07:23:17;;;;;;;12.90;7.97;;;;;;;17.42;36.39;94415.03;5033629;28;20215;-76
2022/04/06 07:25:44;;;;;;;13.85;7.18;;;;;;;17.36;36.77;94411.06;5013666;28;20213;-75
2022/04/06 07:28:11;;;;;;;12.25;7.40;;;;;;;17.30;36.94;94415.31;5013952;28;20213;-76
2022/04/06 07:30:38;;;;;;;14.00;6.85;;;;;;;15.77;38.32;94420.63;5013453;28;20204;-76
2022/04/06 07:33:05;;;;;;;13.55;7.82;;;;;;;15.71;39.03;94422.09;5026313;28;20211;-77
2022/04/06 07:35:35;;;;;;;9.95;6.85;;;;;;;15.77;39.66;94415.94;5032826;28;20627;-76
2022/04/06 07:38:03;;;;;;;15.00;6.80;;;;;;;16.91;37.75;94409.41;5033822;28;20200;-75
2022/04/06 07:40:30;;;;;;;12.95;6.28;;;;;;;17.23;36.92;94417.94;5033732;28;20286;-75
2022/04/06 07:42:57;;;;;;;11.35;6.22;;;;;;;17.42;36.43;94410.34;5033325;28;20208;-75
2022/04/06 07:45:24;;;;;;;10.52;6.53;;;;;;;17.32;36.92;94415.72;5025958;28;20264;-75
2022/04/06 07:47:52;;;;;;;10.05;6.38;;;;;;;17.39;36.59;94410.31;5014068;28;20248;-76
2022/04/06 07:50:21;;;;;;;12.73;6.75;;;;;;;17.07;37.82;94418.19;5013866;28;20209;-74
2022/04/06 07:52:48;;;;;;;10.50;6.47;;;;;;;15.79;39.19;94423.78;5013527;28;20232;-78
2022/04/06 07:55:16;;;;;;;10.77;6.05;;;;;;;15.47;40.01;94424.00;5013757;28;20213;-75
2022/04/06 07:57:44;;;;;;;8.35;5.93;;;;;;;15.75;40.17;94414.72;5028921;28;20551;-78
2022/04/06 08:00:15;;;;;;;10.32;6.05;;;;;;;16.20;39.09;94417.41;5033433;28;20218;-75
2022/04/06 08:02:43;;;;;;;10.65;6.55;;;;;;;15.71;39.47;94416.63;5032400;28;20212;-75
2022/04/06 08:05:10;;;;;;;9.02;5.70;;;;;;;15.43;40.43;94412.25;5031736;28;20571;-74
2022/04/06 08:07:43;;;;;;;10.13;5.85;;;;;;;16.34;38.59;94412.16;5032892;28;20663;-75
2022/04/06 08:10:12;;;;;;;14.63;6.75;;;;;;;15.75;40.56;94409.28;5033385;28;20227;-74
2022/04/06 08:12:41;;;;;;;12.43;5.88;;;;;;;16.17;38.92;94401.75;5014617;28;20661;-76
2022/04/06 08:15:09;;;;;;;11.10;5.13;;;;;;;16.43;38.57;94402.88;5013193;28;20612;-75
2022/04/06 08:17:37;;;;;;;8.85;5.85;;;;;;;16.18;38.37;94402.53;5013043;28;20212;-73
2022/04/06 08:20:05;;;;;;;15.60;6.32;;;;;;;15.63;39.89;94411.03;5025558;28;20255;-74
2022/04/06 08:22:32;;;;;;;17.42;6.40;;;;;;;15.70;40.68;94409.59;5032866;28;20267;-73
2022/04/06 08:24:59;;;;;;;13.30;6.30;;;;;;;16.00;40.04;94408.50;5018029;28;20646;-75
2022/04/06 08:27:27;;;;;;;12.60;6.65;;;;;;;15.52;39.46;94417.44;5012468;28;20607;-76
2022/04/06 08:29:55;;;;;;;16.02;6.65;;;;;;;15.43;40.27;94414.97;5012277;28;20213;-74
2022/04/06 08:32:22;;;;;;;19.08;6.90;;;;;;;15.19;40.42;94420.75;5012185;28;20227;-75
2022/04/06 08:34:49;;;;;;;15.73;5.95;;;;;;;15.45;40.83;94409.13;5012066;28;20201;-75
2022/04/06 08:37:16;;;;;;;18.15;7.45;;;;;;;16.12;39.28;94402.06;5012568;28;20228;-75
2022/04/06 08:39:42;;;;;;;14.82;7.70;;;;;;;15.84;39.79;94398.91;5012824;28;20213;-76
2022/04/06 08:42:11;;;;;;;17.50;6.80;;;;;;;15.81;40.40;94405.09;5012227;28;20355;-75
2022/04/06 08:44:38;;;;;;;15.77;6.32;;;;;;;16.33;38.55;94399.63;5011542;28;20247;-74
2022/04/06 08:47:07;;;;;;;15.52;7.07;;;;;;;16.63;37.98;94401.63;5019395;28;20200;-75
2022/04/06 08:49:35;;;;;;;16.65;6.20;;;;;;;16.98;37.64;94393.03;5032299;28;20208;-74
2022/04/06 08:52:04;;;;;;;8.93;5.30;;;;;;;17.40;37.12;94398.19;5032013;28;20236;-75
2022/04/06 08:54:31;;;;;;;8.43;4.95;;;;;;;17.33;35.97;94381.69;5031484;28;20656;-75
2022/04/06 08:56:59;;;;;;;6.10;4.80;;;;;;;16.22;36.77;94392.44;5031266;28;20306;-75
2022/04/06 08:59:26;;;;;;;7.75;4.63;;;;;;;17.01;35.35;94384.88;5031086;28;20236;-75
2022/04/06 09:01:53;;;;;;;11.32;5.53;;;;;;;16.98;35.31;94380.16;5031696;28;20695;-76
2022/04/06 09:04:23;;;;;;;11.35;5.53;;;;;;;16.67;35.95;94380.59;5031067;28;20220;-75
2022/04/06 09:06:51;;;;;;;13.48;5.82;;;;;;;16.97;35.72;94383.25;5031863;28;20260;-75
2022/04/06 09:09:22;;;;;;;12.40;5.90;;;;;;;17.35;36.60;94382.13;5030999;28;20223;-75
2022/04/06 09:11:49;;;;;;;13.38;6.63;;;;;;;17.79;36.04;94373.13;5019786;28;20213;-75
2022/04/06 09:14:16;;;;;;;12.85;5.75;;;;;;;17.85;35.00;94377.09;5016527;28;20204;-74
2022/04/06 09:16:43;;;;;;;11.07;6.00;;;;;;;18.01;35.15;94363.91;5031333;28;20216;-75
2022/04/06 09:19:12;;;;;;;14.48;6.32;;;;;;;17.30;35.26;94371.50;5031445;28;20215;-77
2022/04/06 09:21:42;;;;;;;12.00;6.75;;;;;;;16.91;35.80;94366.41;5031734;28;20629;-79
2022/04/06 09:24:15;;;;;;;10.50;5.85;;;;;;;16.90;35.44;94367.56;5023780;28;20201;-75
2022/04/06 09:26:42;;;;;;;11.25;5.50;;;;;;;17.48;34.87;94356.03;5012332;28;20694;-75
2022/04/06 09:29:12;;;;;;;10.27;5.00;;;;;;;17.72;32.63;94341.00;5011486;28;20205;-78
2022/04/06 09:31:40;;;;;;;9.25;4.70;;;;;;;17.12;32.56;94341.19;5011776;28;20628;-77
2022/04/06 09:34:11;;;;;;;7.05;4.70;;;;;;;17.74;33.14;94342.19;5011510;28;20213;-75
2022/04/06 09:36:39;;;;;;;6.78;4.85;;;;;;;18.33;32.07;94340.22;5010794;28;20215;-75
2022/04/06 09:39:08;;;;;;;11.90;5.68;;;;;;;18.49;33.01;94331.66;5011500;28;20236;-75
2022/04/06 09:41:58;;;;;;;10.38;4.75;;;;;;;18.29;32.21;94331.19;5011159;28;20236;-77
2022/04/06 09:50:08;;;;;;;10.32;5.47;;;;;;;17.71;32.93;94329.25;5015645;28;20370;-77
2022/04/06 09:52:36;;;;;;;8.65;5.13;;;;;;;17.05;34.02;94328.25;5030817;28;20232;-74
2022/04/06 09:55:07;;;;;;;7.80;5.10;;;;;;;17.19;33.83;94324.06;5031591;28;20216;-74
2022/04/06 09:57:41;;;;;;;11.95;4.95;;;;;;;17.54;33.67;94315.38;5030047;28;20211;-74
2022/04/06 10:00:10;;;;;;;10.18;4.40;;;;;;;17.81;32.96;94310.50;5011404;28;20308;-75
2022/04/06 10:02:38;;;;;;;7.75;4.35;;;;;;;18.03;32.18;94312.25;5011139;28;20288;-76
2022/04/06 10:05:06;;;;;;;8.25;4.50;;;;;;;18.28;32.53;94302.19;5010838;28;20220;-75
2022/04/06 10:07:34;;;;;;;8.02;4.38;;;;;;;18.17;32.38;94300.56;5010530;28;20216;-77
2022/04/06 10:10:01;;;;;;;6.55;3.97;;;;;;;18.65;31.66;94302.00;5021040;28;20671;-74
2022/04/06 10:12:30;;;;;;;5.60;4.03;;;;;;;18.18;31.75;94296.66;5014264;28;20304;-75
2022/04/06 10:15:00;;;;;;;10.48;4.28;;;;;;;18.24;32.26;94290.41;5010724;28;20748;-75
2022/04/06 10:17:28;;;;;;;10.52;4.43;;;;;;;18.19;32.64;94296.25;5011145;28;20213;-75
2022/04/06 10:20:05;;;;;;;12.30;3.80;;;;;;;18.34;31.94;94281.44;5011340;28;20287;-76
2022/04/06 10:22:40;;;;;;;7.82;4.22;;;;;;;18.15;31.39;94281.75;5030006;28;20606;-74
2022/04/06 10:25:14;;;;;;;8.30;3.88;;;;;;;18.20;31.80;94284.13;5015179;28;20196;-75
2022/04/06 10:27:48;;;;;;;8.60;3.88;;;;;;;18.46;32.61;94278.34;5010280;28;20200;-76
2022/04/06 10:30:16;;;;;;;5.32;3.00;;;;;;;17.92;31.63;94275.75;5010824;28;20201;-76
2022/04/06 10:32:45;;;;;;;6.78;3.20;;;;;;;17.71;32.94;94274.44;5010752;28;20231;-74
2022/04/06 10:35:27;;;;;;;10.18;3.72;;;;;;;18.34;33.53;94265.00;5011039;28;20213;-74
2022/04/06 10:38:15;;;;;;;6.45;3.70;;;;;;;18.84;31.34;94254.22;5022405;28;20569;-74
2022/04/06 10:40:59;;;;;;;6.95;3.80;;;;;;;19.29;30.77;94254.66;5019587;28;20310;-74
2022/04/06 10:43:52;;;;;;;7.57;3.90;;;;;;;18.67;31.07;94253.00;5030292;28;20588;-75
2022/04/06 10:46:38;;;;;;;6.68;3.72;;;;;;;18.21;32.29;94252.78;5030565;28;20204;-74
2022/04/06 10:49:15;;;;;;;8.82;3.70;;;;;;;18.67;33.03;94243.97;5029374;28;20772;-74
2022/04/06 10:51:43;;;;;;;7.68;3.78;;;;;;;18.99;31.26;94239.34;5023923;28;20676;-75
2022/04/06 10:54:44;;;;;;;8.32;3.50;;;;;;;18.16;32.02;94244.94;5010543;28;20201;-76
2022/04/06 10:57:12;;;;;;;7.65;3.55;;;;;;;18.25;32.34;94237.16;5010928;28;20206;-75
2022/04/06 10:59:40;;;;;;;6.93;3.83;;;;;;;18.40;32.17;94238.78;5028544;28;20323;-73
2022/04/06 11:02:18;;;;;;;5.53;3.50;;;;;;;18.40;31.32;94238.00;5030055;28;20238;-73
2022/04/06 11:04:47;;;;;;;4.78;3.20;;;;;;;18.30;32.57;94245.00;5030078;28;20200;-75
2022/04/06 11:10:06;;;;;;;10.02;3.65;;;;;;;18.60;31.80;94236.50;5030063;28;20292;-73
2022/04/06 11:10:12;;;;;;;4.07;3.28;;;;;;;18.18;32.22;94231.63;5029106;28;20203;-79
2022/04/06 11:12:57;;;;;;;7.88;3.65;;;;;;;18.13;32.51;94229.25;5012031;28;20263;-77
2022/04/06 11:15:34;;;;;;;7.10;3.40;;;;;;;18.28;32.62;94225.41;5010897;28;20327;-77
2022/04/06 11:18:01;;;;;;;7.55;3.75;;;;;;;18.52;32.37;94225.88;5010578;28;20567;-74
2022/04/06 11:20:33;;;;;;;5.60;3.55;;;;;;;18.39;32.29;94226.22;5010468;28;20201;-73
2022/04/06 11:23:01;;;;;;;5.80;3.40;;;;;;;18.69;32.60;94211.47;5019759;28;20297;-75
2022/04/06 11:25:30;;;;;;;11.48;4.30;;;;;;;19.08;31.80;94206.78;5010974;28;20212;-74
2022/04/06 11:28:06;;;;;;;7.70;3.80;;;;;;;19.34;30.90;94200.13;5009530;28;20220;-75
2022/04/06 11:30:36;;;;;;;12.00;3.60;;;;;;;19.18;31.16;94192.28;5009959;28;20201;-76
2022/04/06 11:33:05;;;;;;;5.38;3.40;;;;;;;18.81;31.56;94206.38;5010350;28;20328;-74
2022/04/06 11:35:35;;;;;;;6.35;3.08;;;;;;;18.56;31.55;94193.75;5010215;28;20209;-75
2022/04/06 11:38:04;;;;;;;5.70;2.83;;;;;;;18.64;31.83;94184.38;5010587;28;20201;-75
2022/04/06 11:40:32;;;;;;;7.75;3.40;;;;;;;18.93;32.12;94183.25;5012004;28;20213;-76
2022/04/06 11:43:02;;;;;;;6.28;3.25;;;;;;;18.97;30.96;94195.03;5013695;28;20615;-74
2022/04/06 11:45:29;;;;;;;6.53;3.17;;;;;;;18.52;31.63;94192.97;5013361;28;20244;-73